sensor_id;sensor_type;location;lat;lon;timestamp;temperature;humidity
16511;DHT22;8368;48.772;8.754;2023-07-08T00:00:12;16.30;99.90
16511;DHT22;8368;48.772;8.754;2023-07-08T00:02:40;16.40;99.90
16511;DHT22;8368;48.772;8.754;2023-07-08T00:05:08;16.30;99.90
16511;DHT22;8368;48.772;8.754;2023-07-08T00:07:34;16.30;99.90
16511;DHT22;8368;48.772;8.754;2023-07-08T00:09:59;16.30;99.90
16511;DHT22;8368;48.772;8.754;2023-07-08T00:12:25;16.30;99.90
16511;DHT22;8368;48.772;8.754;2023-07-08T00:14:50;16.30;99.90
16511;DHT22;8368;48.772;8.754;2023-07-08T00:17:16;16.20;99.90
16511;DHT22;8368;48.772;8.754;2023-07-08T00:19:41;16.10;99.90
16511;DHT22;8368;48.772;8.754;2023-07-08T00:22:12;16.10;99.90
16511;DHT22;8368;48.772;8.754;2023-07-08T00:24:41;16.10;99.90
16511;DHT22;8368;48.772;8.754;2023-07-08T00:27:09;16.10;99.90
16511;DHT22;8368;48.772;8.754;2023-07-08T00:29:35;16.10;99.90
16511;DHT22;8368;48.772;8.754;2023-07-08T00:32:01;16.00;99.90
16511;DHT22;8368;48.772;8.754;2023-07-08T00:34:26;16.00;99.90
16511;DHT22;8368;48.772;8.754;2023-07-08T00:36:52;16.00;99.90
16511;DHT22;8368;48.772;8.754;2023-07-08T00:39:17;15.90;99.90
16511;DHT22;8368;48.772;8.754;2023-07-08T00:41:43;15.90;99.90
16511;DHT22;8368;48.772;8.754;2023-07-08T00:44:11;15.80;99.90
16511;DHT22;8368;48.772;8.754;2023-07-08T00:52:27;15.80;99.90
16511;DHT22;8368;48.772;8.754;2023-07-08T00:55:07;15.80;99.90
16511;DHT22;8368;48.772;8.754;2023-07-08T00:57:40;15.70;99.90
16511;DHT22;8368;48.772;8.754;2023-07-08T01:00:10;15.80;99.90
16511;DHT22;8368;48.772;8.754;2023-07-08T01:02:45;15.70;99.90
16511;DHT22;8368;48.772;8.754;2023-07-08T01:05:17;15.70;99.90
16511;DHT22;8368;48.772;8.754;2023-07-08T01:07:50;15.60;99.90
16511;DHT22;8368;48.772;8.754;2023-07-08T01:10:20;15.60;99.90
16511;DHT22;8368;48.772;8.754;2023-07-08T01:12:53;15.50;99.90
16511;DHT22;8368;48.772;8.754;2023-07-08T01:15:23;15.40;99.90
16511;DHT22;8368;48.772;8.754;2023-07-08T01:17:51;15.40;99.90
16511;DHT22;8368;48.772;8.754;2023-07-08T01:20:19;15.30;99.90
16511;DHT22;8368;48.772;8.754;2023-07-08T01:22:44;15.30;99.90
16511;DHT22;8368;48.772;8.754;2023-07-08T01:25:12;15.20;99.90
16511;DHT22;8368;48.772;8.754;2023-07-08T01:27:44;15.20;99.90
16511;DHT22;8368;48.772;8.754;2023-07-08T01:30:11;15.10;99.90
16511;DHT22;8368;48.772;8.754;2023-07-08T01:32:40;15.10;99.90
16511;DHT22;8368;48.772;8.754;2023-07-08T01:35:09;15.10;99.90
16511;DHT22;8368;48.772;8.754;2023-07-08T01:37:38;15.10;99.90
16511;DHT22;8368;48.772;8.754;2023-07-08T01:40:27;15.10;99.90
16511;DHT22;8368;48.772;8.754;2023-07-08T01:42:53;15.00;99.90
16511;DHT22;8368;48.772;8.754;2023-07-08T01:45:21;15.10;99.90
16511;DHT22;8368;48.772;8.754;2023-07-08T01:47:49;15.10;99.90
16511;DHT22;8368;48.772;8.754;2023-07-08T01:50:16;15.10;99.90
16511;DHT22;8368;48.772;8.754;2023-07-08T01:52:42;15.10;99.90
16511;DHT22;8368;48.772;8.754;2023-07-08T01:55:08;15.00;99.90
16511;DHT22;8368;48.772;8.754;2023-07-08T01:57:33;15.00;99.90
16511;DHT22;8368;48.772;8.754;2023-07-08T01:59:59;15.00;99.90
16511;DHT22;8368;48.772;8.754;2023-07-08T02:02:25;15.00;99.90
16511;DHT22;8368;48.772;8.754;2023-07-08T02:04:51;14.90;99.90
16511;DHT22;8368;48.772;8.754;2023-07-08T02:07:16;14.90;99.90
16511;DHT22;8368;48.772;8.754;2023-07-08T02:09:42;14.90;99.90
16511;DHT22;8368;48.772;8.754;2023-07-08T02:12:07;14.90;99.90
16511;DHT22;8368;48.772;8.754;2023-07-08T02:14:33;14.90;99.90
16511;DHT22;8368;48.772;8.754;2023-07-08T02:16:59;14.80;99.90
16511;DHT22;8368;48.772;8.754;2023-07-08T02:19:24;14.80;99.90
16511;DHT22;8368;48.772;8.754;2023-07-08T02:21:50;14.90;99.90
16511;DHT22;8368;48.772;8.754;2023-07-08T02:24:17;14.90;99.90
16511;DHT22;8368;48.772;8.754;2023-07-08T02:26:43;14.90;99.90
16511;DHT22;8368;48.772;8.754;2023-07-08T02:29:08;14.90;99.90
16511;DHT22;8368;48.772;8.754;2023-07-08T02:31:34;14.90;99.90
16511;DHT22;8368;48.772;8.754;2023-07-08T02:34:00;14.90;99.90
16511;DHT22;8368;48.772;8.754;2023-07-08T02:36:27;14.90;99.90
16511;DHT22;8368;48.772;8.754;2023-07-08T02:38:53;14.90;99.90
16511;DHT22;8368;48.772;8.754;2023-07-08T02:41:18;14.80;99.90
16511;DHT22;8368;48.772;8.754;2023-07-08T02:43:44;14.80;99.90
16511;DHT22;8368;48.772;8.754;2023-07-08T02:46:09;14.80;99.90
16511;DHT22;8368;48.772;8.754;2023-07-08T02:48:35;14.70;99.90
16511;DHT22;8368;48.772;8.754;2023-07-08T02:51:04;14.60;99.90
16511;DHT22;8368;48.772;8.754;2023-07-08T02:53:31;14.70;99.90
16511;DHT22;8368;48.772;8.754;2023-07-08T02:55:56;14.60;99.90
16511;DHT22;8368;48.772;8.754;2023-07-08T02:58:23;14.60;99.90
16511;DHT22;8368;48.772;8.754;2023-07-08T03:00:56;14.50;99.90
16511;DHT22;8368;48.772;8.754;2023-07-08T03:03:24;14.50;99.90
16511;DHT22;8368;48.772;8.754;2023-07-08T03:06:03;14.50;99.90
16511;DHT22;8368;48.772;8.754;2023-07-08T03:11:02;14.50;99.90
16511;DHT22;8368;48.772;8.754;2023-07-08T03:13:28;14.50;99.90
16511;DHT22;8368;48.772;8.754;2023-07-08T03:15:54;14.60;99.90
16511;DHT22;8368;48.772;8.754;2023-07-08T03:18:20;14.60;99.90
16511;DHT22;8368;48.772;8.754;2023-07-08T03:20:48;14.60;99.90
16511;DHT22;8368;48.772;8.754;2023-07-08T03:23:14;14.70;99.90
16511;DHT22;8368;48.772;8.754;2023-07-08T03:25:39;14.70;99.90
16511;DHT22;8368;48.772;8.754;2023-07-08T03:28:06;14.70;99.90
16511;DHT22;8368;48.772;8.754;2023-07-08T03:30:33;14.70;99.90
16511;DHT22;8368;48.772;8.754;2023-07-08T03:32:59;14.70;99.90
16511;DHT22;8368;48.772;8.754;2023-07-08T03:35:25;14.70;99.90
16511;DHT22;8368;48.772;8.754;2023-07-08T03:37:51;14.70;99.90
16511;DHT22;8368;48.772;8.754;2023-07-08T03:40:16;14.70;99.90
16511;DHT22;8368;48.772;8.754;2023-07-08T03:42:42;14.60;99.90
16511;DHT22;8368;48.772;8.754;2023-07-08T03:45:08;14.60;99.90
16511;DHT22;8368;48.772;8.754;2023-07-08T03:47:33;14.60;99.90
16511;DHT22;8368;48.772;8.754;2023-07-08T03:49:59;14.50;99.90
16511;DHT22;8368;48.772;8.754;2023-07-08T03:52:24;14.50;99.90
16511;DHT22;8368;48.772;8.754;2023-07-08T03:54:50;14.50;99.90
16511;DHT22;8368;48.772;8.754;2023-07-08T03:57:15;14.50;99.90
16511;DHT22;8368;48.772;8.754;2023-07-08T03:59:41;14.60;99.90
16511;DHT22;8368;48.772;8.754;2023-07-08T04:02:12;14.60;99.90
16511;DHT22;8368;48.772;8.754;2023-07-08T04:04:37;14.70;99.90
16511;DHT22;8368;48.772;8.754;2023-07-08T04:07:05;14.70;99.90
16511;DHT22;8368;48.772;8.754;2023-07-08T04:09:30;14.80;99.90
16511;DHT22;8368;48.772;8.754;2023-07-08T04:11:56;14.90;99.90
16511;DHT22;8368;48.772;8.754;2023-07-08T04:14:23;15.00;99.90
16511;DHT22;8368;48.772;8.754;2023-07-08T04:16:55;15.00;99.90
16511;DHT22;8368;48.772;8.754;2023-07-08T04:19:22;15.20;99.90
16511;DHT22;8368;48.772;8.754;2023-07-08T04:21:47;15.30;99.90
16511;DHT22;8368;48.772;8.754;2023-07-08T04:24:15;15.40;99.90
16511;DHT22;8368;48.772;8.754;2023-07-08T04:26:41;15.60;99.90
16511;DHT22;8368;48.772;8.754;2023-07-08T04:29:15;15.70;99.90
16511;DHT22;8368;48.772;8.754;2023-07-08T04:31:41;15.90;99.90
16511;DHT22;8368;48.772;8.754;2023-07-08T04:34:08;16.10;99.90
16511;DHT22;8368;48.772;8.754;2023-07-08T04:36:34;16.20;99.90
16511;DHT22;8368;48.772;8.754;2023-07-08T04:39:01;16.30;99.90
16511;DHT22;8368;48.772;8.754;2023-07-08T04:41:26;16.40;99.90
16511;DHT22;8368;48.772;8.754;2023-07-08T04:43:53;16.50;99.90
16511;DHT22;8368;48.772;8.754;2023-07-08T04:46:25;16.70;99.90
16511;DHT22;8368;48.772;8.754;2023-07-08T04:48:52;16.80;99.90
16511;DHT22;8368;48.772;8.754;2023-07-08T04:51:18;17.00;99.90
16511;DHT22;8368;48.772;8.754;2023-07-08T04:53:44;17.20;99.90
16511;DHT22;8368;48.772;8.754;2023-07-08T04:56:10;17.40;99.90
16511;DHT22;8368;48.772;8.754;2023-07-08T04:58:35;17.60;99.90
16511;DHT22;8368;48.772;8.754;2023-07-08T05:01:01;17.70;99.90
16511;DHT22;8368;48.772;8.754;2023-07-08T05:03:26;17.80;99.90
16511;DHT22;8368;48.772;8.754;2023-07-08T05:05:52;17.70;99.90
16511;DHT22;8368;48.772;8.754;2023-07-08T05:08:17;17.80;99.90
16511;DHT22;8368;48.772;8.754;2023-07-08T05:10:43;17.80;99.90
16511;DHT22;8368;48.772;8.754;2023-07-08T05:13:09;17.80;99.90
16511;DHT22;8368;48.772;8.754;2023-07-08T05:15:35;17.80;99.90
16511;DHT22;8368;48.772;8.754;2023-07-08T05:18:01;17.90;99.90
16511;DHT22;8368;48.772;8.754;2023-07-08T05:20:27;18.00;99.90
16511;DHT22;8368;48.772;8.754;2023-07-08T05:22:52;18.00;99.90
16511;DHT22;8368;48.772;8.754;2023-07-08T05:25:19;18.10;99.90
16511;DHT22;8368;48.772;8.754;2023-07-08T05:27:46;18.20;99.90
16511;DHT22;8368;48.772;8.754;2023-07-08T05:30:15;18.20;99.90
16511;DHT22;8368;48.772;8.754;2023-07-08T05:32:41;18.30;99.90
16511;DHT22;8368;48.772;8.754;2023-07-08T05:35:07;18.30;99.90
16511;DHT22;8368;48.772;8.754;2023-07-08T05:37:32;18.40;99.90
16511;DHT22;8368;48.772;8.754;2023-07-08T05:39:58;18.50;99.90
16511;DHT22;8368;48.772;8.754;2023-07-08T05:42:27;18.60;99.90
16511;DHT22;8368;48.772;8.754;2023-07-08T05:44:53;18.70;99.90
16511;DHT22;8368;48.772;8.754;2023-07-08T05:47:20;18.80;99.90
16511;DHT22;8368;48.772;8.754;2023-07-08T05:49:47;18.90;99.90
16511;DHT22;8368;48.772;8.754;2023-07-08T05:52:12;19.00;99.90
16511;DHT22;8368;48.772;8.754;2023-07-08T05:54:38;19.10;99.90
16511;DHT22;8368;48.772;8.754;2023-07-08T05:57:06;19.20;99.90
16511;DHT22;8368;48.772;8.754;2023-07-08T05:59:32;19.10;99.90
16511;DHT22;8368;48.772;8.754;2023-07-08T06:01:57;19.20;99.90
16511;DHT22;8368;48.772;8.754;2023-07-08T06:04:23;19.70;99.90
16511;DHT22;8368;48.772;8.754;2023-07-08T06:06:48;19.80;99.90
16511;DHT22;8368;48.772;8.754;2023-07-08T06:09:14;19.80;99.90
16511;DHT22;8368;48.772;8.754;2023-07-08T06:11:39;19.70;99.90
16511;DHT22;8368;48.772;8.754;2023-07-08T06:14:06;19.70;99.90
16511;DHT22;8368;48.772;8.754;2023-07-08T06:16:31;19.70;99.90
16511;DHT22;8368;48.772;8.754;2023-07-08T06:18:57;19.70;99.90
16511;DHT22;8368;48.772;8.754;2023-07-08T06:21:23;19.60;99.90
16511;DHT22;8368;48.772;8.754;2023-07-08T06:23:49;19.60;99.90
16511;DHT22;8368;48.772;8.754;2023-07-08T06:26:15;19.50;99.90
16511;DHT22;8368;48.772;8.754;2023-07-08T06:28:40;19.60;99.90
16511;DHT22;8368;48.772;8.754;2023-07-08T06:31:06;19.60;99.90
16511;DHT22;8368;48.772;8.754;2023-07-08T06:33:31;19.70;99.90
16511;DHT22;8368;48.772;8.754;2023-07-08T06:35:57;19.90;99.90
16511;DHT22;8368;48.772;8.754;2023-07-08T06:38:22;20.30;99.90
16511;DHT22;8368;48.772;8.754;2023-07-08T06:40:48;20.40;99.90
16511;DHT22;8368;48.772;8.754;2023-07-08T06:43:13;20.70;99.90
16511;DHT22;8368;48.772;8.754;2023-07-08T06:45:40;20.90;99.90
16511;DHT22;8368;48.772;8.754;2023-07-08T06:48:06;21.00;99.90
16511;DHT22;8368;48.772;8.754;2023-07-08T06:50:31;21.20;99.90
16511;DHT22;8368;48.772;8.754;2023-07-08T06:52:57;21.40;99.90
16511;DHT22;8368;48.772;8.754;2023-07-08T06:55:23;21.60;99.90
16511;DHT22;8368;48.772;8.754;2023-07-08T06:57:49;21.70;99.90
16511;DHT22;8368;48.772;8.754;2023-07-08T07:00:15;21.80;99.90
16511;DHT22;8368;48.772;8.754;2023-07-08T07:02:40;21.80;99.90
16511;DHT22;8368;48.772;8.754;2023-07-08T07:05:06;21.80;99.90
16511;DHT22;8368;48.772;8.754;2023-07-08T07:07:32;21.70;99.90
16511;DHT22;8368;48.772;8.754;2023-07-08T07:09:59;21.60;99.90
16511;DHT22;8368;48.772;8.754;2023-07-08T07:12:25;21.70;99.90
16511;DHT22;8368;48.772;8.754;2023-07-08T07:14:51;21.80;99.90
16511;DHT22;8368;48.772;8.754;2023-07-08T07:17:20;21.80;99.90
16511;DHT22;8368;48.772;8.754;2023-07-08T07:19:45;21.80;99.90
16511;DHT22;8368;48.772;8.754;2023-07-08T07:22:11;21.80;99.90
16511;DHT22;8368;48.772;8.754;2023-07-08T07:24:36;21.70;99.90
16511;DHT22;8368;48.772;8.754;2023-07-08T07:27:02;21.90;99.90
16511;DHT22;8368;48.772;8.754;2023-07-08T07:29:27;21.80;99.90
16511;DHT22;8368;48.772;8.754;2023-07-08T07:31:53;22.00;99.90
16511;DHT22;8368;48.772;8.754;2023-07-08T07:34:20;22.20;99.90
16511;DHT22;8368;48.772;8.754;2023-07-08T07:36:45;22.40;99.90
16511;DHT22;8368;48.772;8.754;2023-07-08T07:39:11;22.50;99.90
16511;DHT22;8368;48.772;8.754;2023-07-08T07:41:36;22.60;99.90
16511;DHT22;8368;48.772;8.754;2023-07-08T07:44:02;22.70;99.90
16511;DHT22;8368;48.772;8.754;2023-07-08T07:46:28;22.80;99.90
16511;DHT22;8368;48.772;8.754;2023-07-08T07:48:53;22.80;99.90
16511;DHT22;8368;48.772;8.754;2023-07-08T07:51:19;22.80;99.90
16511;DHT22;8368;48.772;8.754;2023-07-08T07:53:44;22.70;99.90
16511;DHT22;8368;48.772;8.754;2023-07-08T07:56:10;22.80;99.90
16511;DHT22;8368;48.772;8.754;2023-07-08T07:58:35;22.90;99.90
16511;DHT22;8368;48.772;8.754;2023-07-08T08:01:01;23.10;99.90
16511;DHT22;8368;48.772;8.754;2023-07-08T08:03:27;23.00;99.90
16511;DHT22;8368;48.772;8.754;2023-07-08T08:05:52;22.90;99.90
16511;DHT22;8368;48.772;8.754;2023-07-08T08:08:19;22.80;99.90
16511;DHT22;8368;48.772;8.754;2023-07-08T08:10:44;22.80;99.90
16511;DHT22;8368;48.772;8.754;2023-07-08T08:13:10;22.80;99.90
16511;DHT22;8368;48.772;8.754;2023-07-08T08:15:37;22.80;99.90
16511;DHT22;8368;48.772;8.754;2023-07-08T08:18:03;22.90;99.90
16511;DHT22;8368;48.772;8.754;2023-07-08T08:20:29;23.30;99.90
16511;DHT22;8368;48.772;8.754;2023-07-08T08:22:55;23.50;99.90
16511;DHT22;8368;48.772;8.754;2023-07-08T08:25:23;23.50;99.90
16511;DHT22;8368;48.772;8.754;2023-07-08T08:27:49;23.50;99.90
16511;DHT22;8368;48.772;8.754;2023-07-08T08:30:15;23.70;99.90
16511;DHT22;8368;48.772;8.754;2023-07-08T08:32:41;23.60;99.90
16511;DHT22;8368;48.772;8.754;2023-07-08T08:35:06;23.50;99.90
16511;DHT22;8368;48.772;8.754;2023-07-08T08:37:32;23.50;99.90
16511;DHT22;8368;48.772;8.754;2023-07-08T08:39:57;23.50;99.90
16511;DHT22;8368;48.772;8.754;2023-07-08T08:42:29;23.60;99.90
16511;DHT22;8368;48.772;8.754;2023-07-08T08:44:56;23.80;99.90
16511;DHT22;8368;48.772;8.754;2023-07-08T08:48:22;23.90;99.90
16511;DHT22;8368;48.772;8.754;2023-07-08T08:50:35;23.90;99.90
16511;DHT22;8368;48.772;8.754;2023-07-08T08:53:10;24.00;99.90
16511;DHT22;8368;48.772;8.754;2023-07-08T08:55:36;24.00;99.90
16511;DHT22;8368;48.772;8.754;2023-07-08T08:58:25;24.20;99.90
16511;DHT22;8368;48.772;8.754;2023-07-08T09:00:57;24.30;99.90
16511;DHT22;8368;48.772;8.754;2023-07-08T09:06:04;24.40;99.90
16511;DHT22;8368;48.772;8.754;2023-07-08T09:08:35;24.50;99.90
16511;DHT22;8368;48.772;8.754;2023-07-08T09:11:27;24.60;99.90
16511;DHT22;8368;48.772;8.754;2023-07-08T09:13:56;24.70;99.90
16511;DHT22;8368;48.772;8.754;2023-07-08T09:21:41;25.20;99.90
16511;DHT22;8368;48.772;8.754;2023-07-08T09:24:15;25.50;99.90
16511;DHT22;8368;48.772;8.754;2023-07-08T09:26:42;25.60;99.90
16511;DHT22;8368;48.772;8.754;2023-07-08T09:29:09;25.60;99.90
16511;DHT22;8368;48.772;8.754;2023-07-08T09:31:38;25.80;99.90
16511;DHT22;8368;48.772;8.754;2023-07-08T09:34:24;25.70;99.90
16511;DHT22;8368;48.772;8.754;2023-07-08T09:37:01;25.70;99.90
16511;DHT22;8368;48.772;8.754;2023-07-08T09:39:27;25.70;99.90
16511;DHT22;8368;48.772;8.754;2023-07-08T09:41:55;25.60;99.90
16511;DHT22;8368;48.772;8.754;2023-07-08T09:44:27;25.80;99.90
16511;DHT22;8368;48.772;8.754;2023-07-08T09:46:56;25.80;99.90
16511;DHT22;8368;48.772;8.754;2023-07-08T09:49:31;25.70;99.90
16511;DHT22;8368;48.772;8.754;2023-07-08T09:51:56;25.60;99.90
16511;DHT22;8368;48.772;8.754;2023-07-08T09:54:24;25.60;99.90
16511;DHT22;8368;48.772;8.754;2023-07-08T09:57:02;25.60;99.90
16511;DHT22;8368;48.772;8.754;2023-07-08T09:59:36;25.60;99.90
16511;DHT22;8368;48.772;8.754;2023-07-08T10:02:24;25.80;99.90
16511;DHT22;8368;48.772;8.754;2023-07-08T10:04:57;26.10;99.90
16511;DHT22;8368;48.772;8.754;2023-07-08T10:07:22;26.20;99.90
16511;DHT22;8368;48.772;8.754;2023-07-08T10:09:51;26.30;99.90
16511;DHT22;8368;48.772;8.754;2023-07-08T10:12:20;26.30;99.90
16511;DHT22;8368;48.772;8.754;2023-07-08T10:14:50;26.40;99.90
16511;DHT22;8368;48.772;8.754;2023-07-08T10:17:19;26.50;99.90
16511;DHT22;8368;48.772;8.754;2023-07-08T10:19:45;26.60;99.90
16511;DHT22;8368;48.772;8.754;2023-07-08T10:22:23;26.70;99.90
16511;DHT22;8368;48.772;8.754;2023-07-08T10:27:55;26.90;99.90
16511;DHT22;8368;48.772;8.754;2023-07-08T10:30:25;27.00;99.90
16511;DHT22;8368;48.772;8.754;2023-07-08T10:33:04;27.10;99.90
16511;DHT22;8368;48.772;8.754;2023-07-08T10:35:36;27.20;99.90
16511;DHT22;8368;48.772;8.754;2023-07-08T10:40:56;27.20;99.90
16511;DHT22;8368;48.772;8.754;2023-07-08T10:43:44;27.10;99.90
16511;DHT22;8368;48.772;8.754;2023-07-08T10:46:19;27.00;99.90
16511;DHT22;8368;48.772;8.754;2023-07-08T10:51:59;26.90;99.90
16511;DHT22;8368;48.772;8.754;2023-07-08T10:57:46;26.80;99.90
16511;DHT22;8368;48.772;8.754;2023-07-08T11:06:12;26.90;99.90
16511;DHT22;8368;48.772;8.754;2023-07-08T11:09:01;26.90;99.90
16511;DHT22;8368;48.772;8.754;2023-07-08T11:11:43;27.00;99.90
16511;DHT22;8368;48.772;8.754;2023-07-08T11:14:21;27.00;99.90
16511;DHT22;8368;48.772;8.754;2023-07-08T11:16:57;27.10;99.90
16511;DHT22;8368;48.772;8.754;2023-07-08T11:19:38;27.10;99.90
16511;DHT22;8368;48.772;8.754;2023-07-08T11:22:10;27.20;99.90
16511;DHT22;8368;48.772;8.754;2023-07-08T11:24:50;27.40;99.90
16511;DHT22;8368;48.772;8.754;2023-07-08T11:27:21;27.50;99.90
16511;DHT22;8368;48.772;8.754;2023-07-08T11:32:25;27.70;99.90
16511;DHT22;8368;48.772;8.754;2023-07-08T11:34:52;27.70;99.90
16511;DHT22;8368;48.772;8.754;2023-07-08T11:37:19;27.70;99.90
16511;DHT22;8368;48.772;8.754;2023-07-08T11:39:53;27.70;99.90
16511;DHT22;8368;48.772;8.754;2023-07-08T11:42:23;27.90;99.90
16511;DHT22;8368;48.772;8.754;2023-07-08T11:44:55;28.20;99.90
16511;DHT22;8368;48.772;8.754;2023-07-08T11:47:41;28.10;99.90
16511;DHT22;8368;48.772;8.754;2023-07-08T11:52:57;28.30;99.90
16511;DHT22;8368;48.772;8.754;2023-07-08T11:55:27;28.40;99.90
16511;DHT22;8368;48.772;8.754;2023-07-08T11:57:59;28.50;99.90
16511;DHT22;8368;48.772;8.754;2023-07-08T12:00:26;28.60;99.90
16511;DHT22;8368;48.772;8.754;2023-07-08T12:03:04;28.60;99.90
16511;DHT22;8368;48.772;8.754;2023-07-08T12:05:42;28.50;99.90
16511;DHT22;8368;48.772;8.754;2023-07-08T12:08:18;28.20;99.90
16511;DHT22;8368;48.772;8.754;2023-07-08T12:10:52;28.20;99.90
16511;DHT22;8368;48.772;8.754;2023-07-08T12:13:23;28.10;99.90
16511;DHT22;8368;48.772;8.754;2023-07-08T12:15:50;27.90;99.90
16511;DHT22;8368;48.772;8.754;2023-07-08T12:20:52;28.30;99.90
16511;DHT22;8368;48.772;8.754;2023-07-08T12:23:19;28.70;99.90
16511;DHT22;8368;48.772;8.754;2023-07-08T12:25:46;29.10;99.90
16511;DHT22;8368;48.772;8.754;2023-07-08T12:28:12;29.50;99.90
16511;DHT22;8368;48.772;8.754;2023-07-08T12:30:38;29.60;99.90
16511;DHT22;8368;48.772;8.754;2023-07-08T12:33:11;29.70;99.90
16511;DHT22;8368;48.772;8.754;2023-07-08T12:35:37;30.00;99.90
16511;DHT22;8368;48.772;8.754;2023-07-08T12:38:10;30.00;99.90
16511;DHT22;8368;48.772;8.754;2023-07-08T12:40:38;30.40;99.90
16511;DHT22;8368;48.772;8.754;2023-07-08T12:43:07;30.80;99.90
16511;DHT22;8368;48.772;8.754;2023-07-08T12:45:34;30.70;99.90
16511;DHT22;8368;48.772;8.754;2023-07-08T12:47:59;30.80;99.90
16511;DHT22;8368;48.772;8.754;2023-07-08T12:50:25;31.10;99.90
16511;DHT22;8368;48.772;8.754;2023-07-08T12:52:51;31.00;99.90
16511;DHT22;8368;48.772;8.754;2023-07-08T12:55:16;30.70;99.90
16511;DHT22;8368;48.772;8.754;2023-07-08T12:57:44;30.90;99.90
16511;DHT22;8368;48.772;8.754;2023-07-08T13:00:21;31.10;99.90
16511;DHT22;8368;48.772;8.754;2023-07-08T13:02:54;31.20;99.90
16511;DHT22;8368;48.772;8.754;2023-07-08T13:05:21;31.10;99.90
16511;DHT22;8368;48.772;8.754;2023-07-08T13:07:47;31.80;99.90
16511;DHT22;8368;48.772;8.754;2023-07-08T13:10:19;32.90;99.90
16511;DHT22;8368;48.772;8.754;2023-07-08T13:12:47;33.70;99.90
16511;DHT22;8368;48.772;8.754;2023-07-08T13:15:21;34.40;98.80
16511;DHT22;8368;48.772;8.754;2023-07-08T13:17:47;35.10;96.70
16511;DHT22;8368;48.772;8.754;2023-07-08T13:20:15;35.30;97.20
16511;DHT22;8368;48.772;8.754;2023-07-08T13:22:41;34.70;95.30
16511;DHT22;8368;48.772;8.754;2023-07-08T13:25:15;33.00;95.80
16511;DHT22;8368;48.772;8.754;2023-07-08T13:27:41;31.90;96.50
16511;DHT22;8368;48.772;8.754;2023-07-08T13:30:19;31.90;97.50
16511;DHT22;8368;48.772;8.754;2023-07-08T13:32:48;33.30;97.60
16511;DHT22;8368;48.772;8.754;2023-07-08T13:35:42;34.30;96.50
16511;DHT22;8368;48.772;8.754;2023-07-08T13:38:21;36.40;95.90
16511;DHT22;8368;48.772;8.754;2023-07-08T13:40:52;37.50;94.70
16511;DHT22;8368;48.772;8.754;2023-07-08T13:43:27;37.70;93.30
16511;DHT22;8368;48.772;8.754;2023-07-08T13:45:53;38.80;92.80
16511;DHT22;8368;48.772;8.754;2023-07-08T13:48:33;39.00;91.00
16511;DHT22;8368;48.772;8.754;2023-07-08T13:56:20;35.50;92.40
16511;DHT22;8368;48.772;8.754;2023-07-08T13:58:51;35.40;92.60
16511;DHT22;8368;48.772;8.754;2023-07-08T14:01:23;36.00;91.80
16511;DHT22;8368;48.772;8.754;2023-07-08T14:03:49;36.30;90.90
16511;DHT22;8368;48.772;8.754;2023-07-08T14:06:21;35.90;90.10
16511;DHT22;8368;48.772;8.754;2023-07-08T14:08:47;36.70;91.00
16511;DHT22;8368;48.772;8.754;2023-07-08T14:11:12;38.00;89.50
16511;DHT22;8368;48.772;8.754;2023-07-08T14:13:38;38.00;89.10
16511;DHT22;8368;48.772;8.754;2023-07-08T14:16:10;37.40;88.20
16511;DHT22;8368;48.772;8.754;2023-07-08T14:18:39;36.70;89.90
16511;DHT22;8368;48.772;8.754;2023-07-08T14:21:04;36.80;90.10
16511;DHT22;8368;48.772;8.754;2023-07-08T14:23:30;36.60;90.60
16511;DHT22;8368;48.772;8.754;2023-07-08T14:25:55;36.10;89.30
16511;DHT22;8368;48.772;8.754;2023-07-08T14:28:21;35.30;88.90
16511;DHT22;8368;48.772;8.754;2023-07-08T14:30:48;35.50;88.40
16511;DHT22;8368;48.772;8.754;2023-07-08T14:33:13;35.40;90.20
16511;DHT22;8368;48.772;8.754;2023-07-08T14:35:39;35.20;90.80
16511;DHT22;8368;48.772;8.754;2023-07-08T14:38:10;34.60;90.20
16511;DHT22;8368;48.772;8.754;2023-07-08T14:40:38;34.40;91.20
16511;DHT22;8368;48.772;8.754;2023-07-08T14:43:10;34.50;91.30
16511;DHT22;8368;48.772;8.754;2023-07-08T14:45:48;34.50;90.40
16511;DHT22;8368;48.772;8.754;2023-07-08T14:48:14;33.80;90.80
16511;DHT22;8368;48.772;8.754;2023-07-08T14:50:40;33.50;92.50
16511;DHT22;8368;48.772;8.754;2023-07-08T14:53:05;33.40;91.40
16511;DHT22;8368;48.772;8.754;2023-07-08T14:55:31;33.30;91.30
16511;DHT22;8368;48.772;8.754;2023-07-08T14:57:57;32.90;91.70
16511;DHT22;8368;48.772;8.754;2023-07-08T15:00:23;32.50;92.00
16511;DHT22;8368;48.772;8.754;2023-07-08T15:02:51;32.40;90.80
16511;DHT22;8368;48.772;8.754;2023-07-08T15:05:24;32.50;91.30
16511;DHT22;8368;48.772;8.754;2023-07-08T15:07:50;32.40;91.70
16511;DHT22;8368;48.772;8.754;2023-07-08T15:10:16;32.70;92.10
16511;DHT22;8368;48.772;8.754;2023-07-08T15:12:42;32.40;91.90
16511;DHT22;8368;48.772;8.754;2023-07-08T15:15:23;32.10;91.70
16511;DHT22;8368;48.772;8.754;2023-07-08T15:17:51;32.00;93.70
16511;DHT22;8368;48.772;8.754;2023-07-08T15:20:18;31.90;92.90
16511;DHT22;8368;48.772;8.754;2023-07-08T15:22:44;31.60;92.30
16511;DHT22;8368;48.772;8.754;2023-07-08T15:25:14;31.60;91.90
16511;DHT22;8368;48.772;8.754;2023-07-08T15:27:42;31.50;92.50
16511;DHT22;8368;48.772;8.754;2023-07-08T15:30:16;31.40;92.50
16511;DHT22;8368;48.772;8.754;2023-07-08T15:32:43;31.30;92.10
16511;DHT22;8368;48.772;8.754;2023-07-08T15:35:12;31.30;91.90
16511;DHT22;8368;48.772;8.754;2023-07-08T15:37:37;31.30;92.50
16511;DHT22;8368;48.772;8.754;2023-07-08T15:40:03;31.50;92.30
16511;DHT22;8368;48.772;8.754;2023-07-08T15:42:34;31.20;93.00
16511;DHT22;8368;48.772;8.754;2023-07-08T15:45:01;31.00;92.00
16511;DHT22;8368;48.772;8.754;2023-07-08T15:47:27;30.90;92.20
16511;DHT22;8368;48.772;8.754;2023-07-08T15:49:53;30.80;92.30
16511;DHT22;8368;48.772;8.754;2023-07-08T15:52:18;30.80;93.10
16511;DHT22;8368;48.772;8.754;2023-07-08T15:54:43;30.90;91.60
16511;DHT22;8368;48.772;8.754;2023-07-08T15:57:12;30.80;91.50
16511;DHT22;8368;48.772;8.754;2023-07-08T15:59:38;30.80;91.10
16511;DHT22;8368;48.772;8.754;2023-07-08T16:02:22;30.90;91.80
16511;DHT22;8368;48.772;8.754;2023-07-08T16:04:49;30.80;92.10
16511;DHT22;8368;48.772;8.754;2023-07-08T16:07:15;30.70;91.80
16511;DHT22;8368;48.772;8.754;2023-07-08T16:09:40;30.70;91.20
16511;DHT22;8368;48.772;8.754;2023-07-08T16:12:08;30.70;92.20
16511;DHT22;8368;48.772;8.754;2023-07-08T16:14:36;30.60;92.70
16511;DHT22;8368;48.772;8.754;2023-07-08T16:17:01;30.50;93.10
16511;DHT22;8368;48.772;8.754;2023-07-08T16:19:27;30.30;92.80
16511;DHT22;8368;48.772;8.754;2023-07-08T16:21:55;30.40;93.00
16511;DHT22;8368;48.772;8.754;2023-07-08T16:24:20;30.30;93.00
16511;DHT22;8368;48.772;8.754;2023-07-08T16:26:46;30.30;93.10
16511;DHT22;8368;48.772;8.754;2023-07-08T16:29:15;30.20;93.00
16511;DHT22;8368;48.772;8.754;2023-07-08T16:31:41;30.20;93.50
16511;DHT22;8368;48.772;8.754;2023-07-08T16:34:09;30.10;93.40
16511;DHT22;8368;48.772;8.754;2023-07-08T16:36:35;30.10;92.80
16511;DHT22;8368;48.772;8.754;2023-07-08T16:39:00;30.00;93.50